createdAt,value
2023-09-06T00:01:58.634Z,3.42
2023-09-06T00:04:35.364Z,3.85
2023-09-06T00:07:12.232Z,3.90
2023-09-06T00:09:48.404Z,4.35
2023-09-06T00:12:24.389Z,3.88
2023-09-06T00:15:00.354Z,3.92
2023-09-06T00:17:40.208Z,3.78
2023-09-06T00:20:21.797Z,3.85
2023-09-06T00:23:07.761Z,3.55
2023-09-06T00:25:45.129Z,3.50
2023-09-06T00:28:25.558Z,3.85
2023-09-06T00:31:04.135Z,4.95
2023-09-06T00:33:43.221Z,3.72
2023-09-06T00:36:19.186Z,4.05
2023-09-06T00:38:55.195Z,3.90
2023-09-06T00:41:32.129Z,4.20
2023-09-06T00:44:10.041Z,3.60
2023-09-06T00:46:46.684Z,4.05
2023-09-06T00:49:22.869Z,4.35
2023-09-06T00:51:59.033Z,3.67
2023-09-06T00:54:35.207Z,3.38
2023-09-06T00:57:11.799Z,4.03
2023-09-06T00:59:48.008Z,3.90
2023-09-06T01:02:24.036Z,3.55
2023-09-06T01:05:00.891Z,4.80
2023-09-06T01:07:38.949Z,3.70
2023-09-06T01:10:14.975Z,4.50
2023-09-06T01:12:50.971Z,3.90
2023-09-06T01:15:27.889Z,4.70
2023-09-06T01:18:07.058Z,4.35
2023-09-06T01:20:54.317Z,4.55
2023-09-06T01:23:45.286Z,4.20
2023-09-06T01:26:21.993Z,5.05
2023-09-06T01:28:58.122Z,4.07
2023-09-06T01:31:34.900Z,5.35
2023-09-06T01:34:11.150Z,4.80
2023-09-06T01:36:48.018Z,5.18
2023-09-06T01:39:24.111Z,4.35
2023-09-06T01:42:00.059Z,4.25
2023-09-06T01:44:38.083Z,4.20
2023-09-06T01:47:15.226Z,4.55
2023-09-06T01:49:51.882Z,5.03
2023-09-06T01:52:28.315Z,5.60
2023-09-06T01:55:06.462Z,4.47
2023-09-06T01:57:42.628Z,4.40
2023-09-06T02:00:26.736Z,4.15
2023-09-06T02:03:03.995Z,4.95
2023-09-06T02:05:45.419Z,4.55
2023-09-06T02:08:22.499Z,4.63
2023-09-06T02:10:58.679Z,5.55
2023-09-06T02:13:36.075Z,5.00
2023-09-06T02:16:14.866Z,4.07
2023-09-06T02:18:51.885Z,5.00
2023-09-06T02:21:28.397Z,5.18
2023-09-06T02:24:06.021Z,4.57
2023-09-06T02:26:41.879Z,4.93
2023-09-06T02:29:17.889Z,4.70
2023-09-06T02:31:54.334Z,5.00
2023-09-06T02:34:30.822Z,5.03
2023-09-06T02:37:07.560Z,4.70
2023-09-06T02:39:43.648Z,5.15
2023-09-06T02:42:20.075Z,4.90
2023-09-06T02:44:56.215Z,4.47
2023-09-06T02:47:32.405Z,5.38
2023-09-06T02:50:13.002Z,5.28
2023-09-06T02:52:52.081Z,4.80
2023-09-06T02:55:28.670Z,4.60
2023-09-06T02:58:06.526Z,4.40
2023-09-06T03:00:42.780Z,4.70
2023-09-06T03:03:18.779Z,5.38
2023-09-06T03:05:54.934Z,5.13
2023-09-06T03:08:33.596Z,5.65
2023-09-06T03:11:11.313Z,4.65
2023-09-06T03:13:47.887Z,4.63
2023-09-06T03:16:24.546Z,5.55
2023-09-06T03:19:04.151Z,5.28
2023-09-06T03:21:43.167Z,5.30
2023-09-06T03:24:20.896Z,5.65
2023-09-06T03:26:59.561Z,5.40
2023-09-06T03:29:42.530Z,5.50
2023-09-06T03:32:20.465Z,6.05
2023-09-06T03:34:57.225Z,6.10
2023-09-06T03:37:33.270Z,5.60
2023-09-06T03:40:26.708Z,5.70
2023-09-06T03:43:05.776Z,5.97
2023-09-06T03:45:43.424Z,5.20
2023-09-06T03:48:22.324Z,5.88
2023-09-06T03:51:01.232Z,5.85
2023-09-06T03:53:39.097Z,5.78
2023-09-06T03:56:18.657Z,6.13
2023-09-06T03:59:05.041Z,6.10
2023-09-06T04:01:45.750Z,5.93
2023-09-06T04:04:22.759Z,5.68
2023-09-06T04:06:58.962Z,5.60
2023-09-06T04:09:38.746Z,6.00
2023-09-06T04:12:14.839Z,6.50
2023-09-06T04:14:50.909Z,6.07
2023-09-06T04:17:29.174Z,5.60
2023-09-06T04:20:19.502Z,5.38
2023-09-06T04:22:56.453Z,5.05
2023-09-06T04:25:34.744Z,5.22
2023-09-06T04:28:11.177Z,5.13
2023-09-06T04:30:50.319Z,4.85
2023-09-06T04:33:30.920Z,5.10
2023-09-06T04:36:22.380Z,5.40
2023-09-06T04:39:05.549Z,4.72
2023-09-06T04:41:45.285Z,5.40
2023-09-06T04:44:26.054Z,4.85
2023-09-06T04:47:03.795Z,5.40
2023-09-06T04:49:40.939Z,4.95
2023-09-06T04:52:17.704Z,6.18
2023-09-06T04:55:14.077Z,5.28
2023-09-06T04:57:54.029Z,5.78
2023-09-06T05:00:32.136Z,5.68
2023-09-06T05:03:12.952Z,5.20
2023-09-06T05:05:50.732Z,6.63
2023-09-06T05:08:27.084Z,5.45
2023-09-06T05:11:04.592Z,5.53
2023-09-06T05:13:43.106Z,6.22
2023-09-06T05:16:19.164Z,6.18
2023-09-06T05:18:55.826Z,6.15
2023-09-06T05:21:36.588Z,5.63
2023-09-06T05:24:13.767Z,5.63
2023-09-06T05:26:50.103Z,6.07
2023-09-06T05:29:28.564Z,5.63
2023-09-06T05:32:05.389Z,6.43
2023-09-06T05:34:42.848Z,5.82
2023-09-06T05:37:18.963Z,7.05
2023-09-06T05:39:55.043Z,7.05
2023-09-06T05:42:32.363Z,6.32
2023-09-06T05:45:09.258Z,6.85
2023-09-06T05:47:45.460Z,6.82
2023-09-06T05:50:22.855Z,7.32
2023-09-06T05:52:59.210Z,7.20
2023-09-06T05:55:35.533Z,7.05
2023-09-06T05:58:12.887Z,8.68
2023-09-06T06:00:50.727Z,8.32
2023-09-06T06:03:28.469Z,7.75
2023-09-06T06:06:10.346Z,7.68
2023-09-06T06:08:46.502Z,7.30
2023-09-06T06:11:26.097Z,7.22
2023-09-06T06:14:10.996Z,6.95
2023-09-06T06:16:50.058Z,7.00
2023-09-06T06:19:26.295Z,7.05
2023-09-06T06:22:04.332Z,7.60
2023-09-06T06:24:40.693Z,8.05
2023-09-06T06:27:17.129Z,8.00
2023-09-06T06:29:53.511Z,7.85
2023-09-06T06:32:29.793Z,7.68
2023-09-06T06:35:10.394Z,6.60
2023-09-06T06:37:46.641Z,6.97
2023-09-06T06:40:24.130Z,7.13
2023-09-06T06:43:00.372Z,7.00
2023-09-06T06:45:39.891Z,7.13
2023-09-06T06:48:16.046Z,6.63
2023-09-06T06:50:52.607Z,7.82
2023-09-06T06:53:28.750Z,7.70
2023-09-06T06:56:05.341Z,7.85
2023-09-06T06:58:42.124Z,7.03
2023-09-06T07:01:28.948Z,7.00
2023-09-06T07:04:07.280Z,6.70
2023-09-06T07:09:25.646Z,6.05
2023-09-06T07:12:04.074Z,6.72
2023-09-06T07:14:40.481Z,7.28
2023-09-06T07:17:17.146Z,7.60
2023-09-06T07:19:53.570Z,7.68
2023-09-06T07:22:31.441Z,6.65
2023-09-06T07:25:09.599Z,6.97
2023-09-06T07:27:45.992Z,7.90
2023-09-06T07:30:30.838Z,8.18
2023-09-06T07:33:16.001Z,7.65
2023-09-06T07:35:55.345Z,8.43
2023-09-06T07:38:32.677Z,8.38
2023-09-06T07:41:11.018Z,7.30
2023-09-06T07:43:47.094Z,7.38
2023-09-06T07:46:25.635Z,7.63
2023-09-06T07:49:05.009Z,6.72
2023-09-06T07:51:45.074Z,7.47
2023-09-06T07:54:21.235Z,6.95
2023-09-06T07:56:57.226Z,7.03
2023-09-06T07:59:33.640Z,6.82
2023-09-06T08:02:10.466Z,6.90
2023-09-06T08:04:48.408Z,6.78
2023-09-06T08:07:24.537Z,6.20
2023-09-06T08:10:08.029Z,6.60
2023-09-06T08:12:45.576Z,7.03
2023-09-06T08:15:22.153Z,6.15
2023-09-06T08:17:58.258Z,7.30
2023-09-06T08:20:35.443Z,7.07
2023-09-06T08:23:12.085Z,6.93
2023-09-06T08:25:48.677Z,6.40
2023-09-06T08:28:25.155Z,5.88
2023-09-06T08:31:03.530Z,5.85
2023-09-06T08:33:39.791Z,5.85
2023-09-06T08:36:16.103Z,5.60
2023-09-06T08:38:53.899Z,5.05
2023-09-06T08:41:30.175Z,5.85
2023-09-06T08:44:10.690Z,5.28
2023-09-06T08:46:46.701Z,6.40
2023-09-06T08:49:23.489Z,4.75
2023-09-06T08:52:00.277Z,5.32
2023-09-06T08:54:39.376Z,5.50
2023-09-06T09:00:15.417Z,5.13
2023-09-06T09:02:52.381Z,5.45
2023-09-06T09:05:28.538Z,4.22
2023-09-06T09:08:09.729Z,4.45
2023-09-06T09:10:45.890Z,4.50
2023-09-06T09:13:22.509Z,4.22
2023-09-06T09:15:59.204Z,5.53
2023-09-06T09:18:35.816Z,4.72
2023-09-06T09:21:14.086Z,4.45
2023-09-06T09:23:59.343Z,4.45
2023-09-06T09:26:37.477Z,5.03
2023-09-06T09:29:17.835Z,5.05
2023-09-06T09:31:54.214Z,5.80
2023-09-06T09:34:30.263Z,5.13
2023-09-06T09:37:09.152Z,5.90
2023-09-06T09:39:54.680Z,5.32
2023-09-06T09:42:30.753Z,5.57
2023-09-06T09:45:08.321Z,5.25
2023-09-06T09:47:53.800Z,4.90
2023-09-06T09:50:32.299Z,5.60
2023-09-06T09:53:20.706Z,5.20
2023-09-06T09:56:16.229Z,5.15
2023-09-06T09:58:53.580Z,4.50
2023-09-06T10:01:30.509Z,5.75
2023-09-06T10:04:09.608Z,6.00
2023-09-06T10:06:45.813Z,5.70
2023-09-06T10:09:24.619Z,5.20
2023-09-06T10:12:01.469Z,5.32
2023-09-06T10:14:38.419Z,5.32
2023-09-06T10:17:15.635Z,5.50
2023-09-06T10:19:54.878Z,5.40
2023-09-06T10:22:33.216Z,5.95
2023-09-06T10:25:11.679Z,5.07
2023-09-06T10:27:51.337Z,5.10
2023-09-06T10:30:50.285Z,5.22
2023-09-06T10:33:43.787Z,4.55
2023-09-06T10:36:31.611Z,5.70
2023-09-06T10:39:11.713Z,5.35
2023-09-06T10:42:14.966Z,5.25
2023-09-06T10:45:00.641Z,4.93
2023-09-06T10:47:40.421Z,5.40
2023-09-06T10:50:24.342Z,4.95
2023-09-06T10:53:04.815Z,9.10
2023-09-06T10:55:49.249Z,4.78
2023-09-06T10:58:31.338Z,4.97
2023-09-06T11:01:17.638Z,5.07
2023-09-06T11:03:56.555Z,5.00
2023-09-06T11:06:34.484Z,5.13
2023-09-06T11:09:12.278Z,5.03
2023-09-06T11:11:48.516Z,4.95
2023-09-06T11:14:24.564Z,5.03
2023-09-06T11:17:00.863Z,5.90
2023-09-06T11:19:39.101Z,5.03
2023-09-06T11:22:15.257Z,5.97
2023-09-06T11:24:51.240Z,5.13
2023-09-06T11:27:35.202Z,5.10
2023-09-06T11:30:17.786Z,5.97
2023-09-06T11:32:54.880Z,5.70
2023-09-06T11:35:34.540Z,5.78
2023-09-06T11:38:13.498Z,5.32
2023-09-06T11:40:50.036Z,5.47
2023-09-06T11:43:28.430Z,5.45
2023-09-06T11:46:08.124Z,5.10
2023-09-06T11:48:45.172Z,6.00
2023-09-06T11:51:25.692Z,5.15
2023-09-06T11:54:05.571Z,5.65
2023-09-06T11:56:45.749Z,6.20
2023-09-06T11:59:22.360Z,5.82
2023-09-06T12:02:03.096Z,5.82
2023-09-06T12:04:41.812Z,5.50
2023-09-06T12:07:17.881Z,5.13
2023-09-06T12:09:56.332Z,5.53
2023-09-06T12:12:32.562Z,5.00
2023-09-06T12:15:09.427Z,5.05
2023-09-06T12:17:46.746Z,5.30
2023-09-06T12:20:24.760Z,4.63
2023-09-06T12:23:04.393Z,4.40
2023-09-06T12:25:41.233Z,5.28
2023-09-06T12:28:17.479Z,4.72
2023-09-06T12:30:57.405Z,4.85
2023-09-06T12:33:33.895Z,4.22
2023-09-06T12:36:12.368Z,4.63
2023-09-06T12:38:49.033Z,4.68
2023-09-06T12:41:25.149Z,4.60
2023-09-06T12:44:01.283Z,4.90
2023-09-06T12:46:38.931Z,5.18
2023-09-06T12:49:15.312Z,4.38
2023-09-06T12:51:51.981Z,4.50
2023-09-06T12:54:29.325Z,4.35
2023-09-06T12:57:07.967Z,4.30
2023-09-06T12:59:45.044Z,4.45
2023-09-06T13:02:21.265Z,3.83
2023-09-06T13:04:58.025Z,3.70
2023-09-06T13:07:36.960Z,4.70
2023-09-06T13:10:16.610Z,4.35
2023-09-06T13:12:53.725Z,4.35
2023-09-06T13:15:29.902Z,4.15
2023-09-06T13:18:16.425Z,4.25
2023-09-06T13:20:52.940Z,3.88
2023-09-06T13:23:30.693Z,4.38
2023-09-06T13:26:08.536Z,4.00
2023-09-06T13:28:44.859Z,4.13
2023-09-06T13:31:24.169Z,4.22
2023-09-06T13:34:00.525Z,4.32
2023-09-06T13:36:42.262Z,4.28
2023-09-06T13:39:18.717Z,4.30
2023-09-06T13:41:58.135Z,3.92
2023-09-06T13:44:37.857Z,4.22
2023-09-06T13:47:18.240Z,3.75
2023-09-06T13:49:54.689Z,4.38
2023-09-06T13:52:31.620Z,4.53
2023-09-06T13:55:08.686Z,3.85
2023-09-06T13:57:45.404Z,3.83
2023-09-06T14:00:22.068Z,4.15
2023-09-06T14:02:58.521Z,3.78
2023-09-06T14:05:36.681Z,4.18
2023-09-06T14:08:12.978Z,3.95
2023-09-06T14:10:50.223Z,4.10
2023-09-06T14:13:27.484Z,3.70
2023-09-06T14:16:05.489Z,3.63
2023-09-06T14:18:41.699Z,4.18
2023-09-06T14:21:22.097Z,4.20
2023-09-06T14:23:58.304Z,3.50
2023-09-06T14:26:34.349Z,3.75
2023-09-06T14:29:10.656Z,4.00
2023-09-06T14:31:46.837Z,3.75
2023-09-06T14:34:22.972Z,3.78
2023-09-06T14:37:00.986Z,3.63
2023-09-06T14:39:40.076Z,4.03
2023-09-06T14:42:16.315Z,3.67
2023-09-06T14:44:52.805Z,4.03
2023-09-06T14:47:29.028Z,3.90
2023-09-06T14:50:06.207Z,4.03
2023-09-06T14:52:42.366Z,3.95
2023-09-06T14:55:18.501Z,3.60
2023-09-06T14:57:55.274Z,4.72
2023-09-06T15:00:31.465Z,3.58
2023-09-06T15:03:09.553Z,3.60
2023-09-06T15:05:47.551Z,3.72
2023-09-06T15:08:27.133Z,3.40
2023-09-06T15:11:03.698Z,3.08
2023-09-06T15:13:39.860Z,3.47
2023-09-06T15:16:17.018Z,3.72
2023-09-06T15:18:53.346Z,3.67
2023-09-06T15:21:29.530Z,3.60
2023-09-06T15:24:05.948Z,3.10
2023-09-06T15:26:42.081Z,3.70
2023-09-06T15:29:18.554Z,3.72
2023-09-06T15:31:55.275Z,3.17
2023-09-06T15:34:32.476Z,3.58
2023-09-06T15:37:17.854Z,3.45
2023-09-06T15:39:55.389Z,3.55
2023-09-06T15:42:34.611Z,3.53
2023-09-06T15:45:10.995Z,3.70
2023-09-06T15:47:49.511Z,3.20
2023-09-06T15:50:26.700Z,3.20
2023-09-06T15:53:08.673Z,3.17
2023-09-06T15:55:48.813Z,3.50
2023-09-06T15:58:28.715Z,3.53
2023-09-06T16:01:07.909Z,3.45
2023-09-06T16:03:45.541Z,3.20
2023-09-06T16:06:21.606Z,2.95
2023-09-06T16:09:11.405Z,3.58
2023-09-06T16:11:49.728Z,3.17
2023-09-06T16:14:27.363Z,3.22
2023-09-06T16:17:06.179Z,3.20
2023-09-06T16:19:42.104Z,3.00
2023-09-06T16:22:18.248Z,2.92
2023-09-06T16:24:56.054Z,3.50
2023-09-06T16:27:32.325Z,2.85
2023-09-06T16:30:09.965Z,2.97
2023-09-06T16:32:46.494Z,3.65
2023-09-06T16:35:23.463Z,3.17
2023-09-06T16:38:00.031Z,2.90
2023-09-06T16:40:42.245Z,2.60
2023-09-06T16:43:18.258Z,3.20
2023-09-06T16:45:54.631Z,2.35
2023-09-06T16:48:31.004Z,2.50
2023-09-06T16:51:07.682Z,2.97
2023-09-06T16:53:45.445Z,2.58
2023-09-06T16:56:21.458Z,2.97
2023-09-06T16:58:58.463Z,3.20
2023-09-06T17:01:34.867Z,2.60
2023-09-06T17:04:11.343Z,3.10
2023-09-06T17:06:49.326Z,2.63
2023-09-06T17:09:25.758Z,2.70
2023-09-06T17:12:03.285Z,2.72
2023-09-06T17:14:42.151Z,2.50
2023-09-06T17:17:23.399Z,2.63
2023-09-06T17:22:41.574Z,2.67
2023-09-06T17:25:21.129Z,2.95
2023-09-06T17:28:00.284Z,3.30
2023-09-06T17:30:39.388Z,2.70
2023-09-06T17:33:21.625Z,2.83
2023-09-06T17:35:58.131Z,2.47
2023-09-06T17:38:37.511Z,2.85
2023-09-06T17:41:21.612Z,2.83
2023-09-06T17:44:07.454Z,2.70
2023-09-06T17:46:54.825Z,2.70
2023-09-06T17:49:31.197Z,2.55
2023-09-06T17:52:09.491Z,2.45
2023-09-06T17:54:45.573Z,2.58
2023-09-06T17:57:22.973Z,2.70
2023-09-06T18:00:00.895Z,2.72
2023-09-06T18:02:50.257Z,2.63
2023-09-06T18:05:34.560Z,2.67
2023-09-06T18:08:13.856Z,2.90
2023-09-06T18:10:53.920Z,2.80
2023-09-06T18:13:45.508Z,2.33
2023-09-06T18:16:23.441Z,3.25
2023-09-06T18:18:59.479Z,3.00
2023-09-06T18:21:44.827Z,3.00
2023-09-06T18:24:20.735Z,2.95
2023-09-06T18:27:07.514Z,2.55
2023-09-06T18:29:47.112Z,2.72
2023-09-06T18:32:23.071Z,3.03
2023-09-06T18:34:59.120Z,2.63
2023-09-06T18:37:37.631Z,3.03
2023-09-06T18:40:16.268Z,2.83
2023-09-06T18:42:55.193Z,3.17
2023-09-06T18:45:31.967Z,2.92
2023-09-06T18:48:09.286Z,3.00
2023-09-06T18:50:51.340Z,3.08
2023-09-06T18:53:36.227Z,2.80
2023-09-06T18:56:19.330Z,3.25
2023-09-06T18:59:12.984Z,3.13
2023-09-06T19:01:55.117Z,3.63
2023-09-06T19:05:09.514Z,3.03
2023-09-06T19:08:30.584Z,3.65
2023-09-06T19:11:12.980Z,3.00
2023-09-06T19:14:02.689Z,3.80
2023-09-06T19:16:52.318Z,4.10
2023-09-06T19:19:50.593Z,3.38
2023-09-06T19:23:34.198Z,3.47
2023-09-06T19:26:13.783Z,3.67
2023-09-06T19:29:43.216Z,3.85
2023-09-06T19:32:26.351Z,3.42
2023-09-06T19:35:08.099Z,3.90
2023-09-06T19:37:47.825Z,3.25
2023-09-06T19:40:33.604Z,3.70
2023-09-06T19:43:44.310Z,3.97
2023-09-06T19:46:27.138Z,3.67
2023-09-06T19:49:06.752Z,4.00
2023-09-06T19:51:43.521Z,3.63
2023-09-06T19:54:22.122Z,3.20
2023-09-06T19:56:58.166Z,3.42
2023-09-06T19:59:34.495Z,3.67
2023-09-06T20:02:12.684Z,3.58
2023-09-06T20:04:49.245Z,3.35
2023-09-06T20:07:30.893Z,3.92
2023-09-06T20:10:09.450Z,3.90
2023-09-06T20:12:51.219Z,3.97
2023-09-06T20:15:28.828Z,4.28
2023-09-06T20:18:06.267Z,4.10
2023-09-06T20:20:44.592Z,3.80
2023-09-06T20:23:21.022Z,3.95
2023-09-06T20:25:57.567Z,3.42
2023-09-06T20:28:37.380Z,3.67
2023-09-06T20:31:13.486Z,3.92
2023-09-06T20:33:50.125Z,4.68
2023-09-06T20:36:26.535Z,4.10
2023-09-06T20:39:02.971Z,4.03
2023-09-06T20:41:39.239Z,3.97
2023-09-06T20:44:15.574Z,4.15
2023-09-06T20:46:51.687Z,3.28
2023-09-06T20:49:28.833Z,3.80
2023-09-06T20:52:05.359Z,3.95
2023-09-06T20:54:41.805Z,3.72
2023-09-06T20:57:19.345Z,3.55
2023-09-06T20:59:55.562Z,3.88
2023-09-06T21:02:32.460Z,3.60
2023-09-06T21:05:08.849Z,3.85
2023-09-06T21:07:44.909Z,3.80
2023-09-06T21:10:21.417Z,3.67
2023-09-06T21:12:57.472Z,4.65
2023-09-06T21:15:34.383Z,4.05
2023-09-06T21:18:12.090Z,4.47
2023-09-06T21:20:48.382Z,4.07
2023-09-06T21:23:24.478Z,3.30
2023-09-06T21:26:01.169Z,3.35
2023-09-06T21:28:38.096Z,3.97
2023-09-06T21:31:14.299Z,3.60
2023-09-06T21:33:51.738Z,3.72
2023-09-06T21:36:28.437Z,3.67
2023-09-06T21:39:04.937Z,3.83
2023-09-06T21:41:41.329Z,3.55
2023-09-06T21:44:21.032Z,3.25
2023-09-06T21:46:57.160Z,3.80
2023-09-06T21:49:33.207Z,3.45
2023-09-06T21:52:16.879Z,3.35
2023-09-06T21:54:52.868Z,3.67
2023-09-06T21:57:29.951Z,3.67
2023-09-06T22:00:11.803Z,4.30
2023-09-06T22:03:06.918Z,3.58
2023-09-06T22:06:02.115Z,3.25
2023-09-06T22:08:56.771Z,3.55
2023-09-06T22:14:27.418Z,3.67
2023-09-06T22:17:03.575Z,3.97
2023-09-06T22:19:43.151Z,3.78
2023-09-06T22:22:23.346Z,3.85
2023-09-06T22:25:02.476Z,4.20
2023-09-06T22:27:40.616Z,3.75
2023-09-06T22:30:17.716Z,3.15
2023-09-06T22:32:53.971Z,3.78
2023-09-06T22:35:31.403Z,3.80
2023-09-06T22:38:08.072Z,3.92
2023-09-06T22:40:44.697Z,3.97
2023-09-06T22:43:24.043Z,3.85
2023-09-06T22:46:00.367Z,3.53
2023-09-06T22:48:53.890Z,3.97
2023-09-06T22:51:31.674Z,3.40
2023-09-06T22:54:10.617Z,3.30
2023-09-06T22:56:47.691Z,3.50
2023-09-06T22:59:26.899Z,3.42
2023-09-06T23:02:04.073Z,4.30
2023-09-06T23:04:41.903Z,3.67
2023-09-06T23:07:19.734Z,3.50
2023-09-06T23:09:56.752Z,4.00
2023-09-06T23:12:33.979Z,3.97
2023-09-06T23:15:12.229Z,3.80
2023-09-06T23:17:50.753Z,3.88
2023-09-06T23:20:30.300Z,3.88
2023-09-06T23:23:11.972Z,3.38
2023-09-06T23:25:52.340Z,3.42
2023-09-06T23:28:30.177Z,3.60
2023-09-06T23:31:07.176Z,3.83
2023-09-06T23:33:47.775Z,3.50
2023-09-06T23:36:25.342Z,3.72
2023-09-06T23:39:04.129Z,3.63
2023-09-06T23:41:41.562Z,4.07
2023-09-06T23:44:18.298Z,3.42
2023-09-06T23:46:56.281Z,3.50
2023-09-06T23:49:35.596Z,3.47
2023-09-06T23:52:11.731Z,3.70
2023-09-06T23:54:49.408Z,3.53
2023-09-06T23:57:28.736Z,3.83
